createdAt,value
2023-04-04T00:01:21.754Z,4.00
2023-04-04T00:06:23.818Z,4.00
2023-04-04T00:16:28.766Z,3.90
2023-04-04T00:21:31.140Z,3.80
2023-04-04T00:31:36.785Z,3.80
2023-04-04T00:36:38.832Z,3.70
2023-04-04T00:41:41.783Z,3.60
2023-04-04T00:46:44.351Z,3.50
2023-04-04T00:51:47.064Z,3.50
2023-04-04T00:56:55.047Z,3.40
2023-04-04T01:01:57.931Z,3.40
2023-04-04T01:07:00.877Z,3.30
2023-04-04T01:12:03.376Z,3.30
2023-04-04T01:17:05.958Z,3.20
2023-04-04T01:22:08.503Z,3.20
2023-04-04T01:32:16.737Z,3.10
2023-04-04T01:37:23.269Z,3.00
2023-04-04T01:47:29.366Z,2.90
2023-04-04T01:52:31.822Z,2.90
2023-04-04T01:57:34.279Z,2.90
2023-04-04T02:02:36.977Z,2.80
2023-04-04T02:07:39.107Z,2.70
2023-04-04T02:17:48.773Z,2.60
2023-04-04T02:22:52.772Z,2.50
2023-04-04T02:27:55.257Z,2.50
2023-04-04T02:33:00.414Z,2.40
2023-04-04T02:38:04.274Z,2.40
2023-04-04T02:43:09.002Z,2.50
2023-04-04T02:48:11.555Z,2.40
2023-04-04T02:53:14.176Z,2.50
2023-04-04T02:58:17.399Z,2.50
2023-04-04T03:03:19.962Z,2.50
2023-04-04T03:08:22.803Z,2.50
2023-04-04T03:13:24.907Z,2.50
2023-04-04T03:18:26.935Z,2.60
2023-04-04T03:23:29.014Z,2.60
2023-04-04T03:28:31.218Z,2.60
2023-04-04T03:33:38.591Z,2.60
2023-04-04T03:38:40.875Z,2.60
2023-04-04T03:43:48.215Z,2.60
2023-04-04T03:48:59.711Z,2.60
2023-04-04T03:54:03.168Z,2.60
2023-04-04T03:59:06.470Z,2.60
2023-04-04T04:04:08.813Z,2.60
2023-04-04T04:09:14.273Z,2.60
2023-04-04T04:14:16.708Z,2.50
2023-04-04T04:19:19.723Z,2.40
2023-04-04T04:24:22.366Z,2.40
2023-04-04T04:29:24.509Z,2.30
2023-04-04T04:34:27.698Z,2.20
2023-04-04T04:39:34.801Z,2.20
2023-04-04T04:44:38.839Z,2.10
2023-04-04T04:49:43.616Z,2.10
2023-04-04T04:59:52.260Z,2.10
2023-04-04T05:04:55.906Z,2.10
2023-04-04T05:09:58.774Z,2.10
2023-04-04T05:15:02.058Z,2.10
2023-04-04T05:20:04.757Z,2.10
2023-04-04T05:25:08.348Z,2.20
2023-04-04T05:30:12.600Z,2.20
2023-04-04T05:35:16.911Z,2.30
2023-04-04T05:40:20.338Z,2.30
2023-04-04T05:45:24.990Z,2.40
2023-04-04T05:50:27.760Z,2.50
2023-04-04T05:55:34.915Z,2.70
2023-04-04T06:00:39.489Z,2.80
2023-04-04T06:05:45.221Z,2.90
2023-04-04T06:10:47.905Z,3.10
2023-04-04T06:15:50.422Z,3.20
2023-04-04T06:20:54.904Z,3.40
2023-04-04T06:25:57.360Z,3.60
2023-04-04T06:30:59.976Z,3.70
2023-04-04T06:36:06.460Z,4.00
2023-04-04T06:41:08.916Z,4.20
2023-04-04T06:46:11.129Z,4.40
2023-04-04T06:51:13.407Z,4.60
2023-04-04T06:56:16.652Z,4.80
2023-04-04T07:01:19.193Z,5.00
2023-04-04T07:06:26.543Z,5.20
2023-04-04T07:11:29.555Z,5.40
2023-04-04T07:16:31.897Z,5.70
2023-04-04T07:21:34.726Z,5.90
2023-04-04T07:26:36.760Z,6.00
2023-04-04T07:31:38.785Z,6.20
2023-04-04T07:36:40.832Z,6.40
2023-04-04T07:41:42.824Z,6.60
2023-04-04T07:46:47.803Z,6.80
2023-04-04T07:51:52.115Z,7.00
2023-04-04T07:56:54.116Z,7.20
2023-04-04T08:01:56.393Z,7.40
2023-04-04T08:06:58.490Z,7.60
2023-04-04T08:12:02.190Z,7.90
2023-04-04T08:17:04.513Z,8.10
2023-04-04T08:22:06.518Z,8.30
2023-04-04T08:27:08.588Z,8.50
2023-04-04T08:32:10.601Z,8.60
2023-04-04T08:37:12.975Z,8.80
2023-04-04T08:42:17.034Z,9.10
2023-04-04T08:47:19.985Z,9.20
2023-04-04T08:52:22.891Z,9.40
2023-04-04T08:57:25.005Z,9.50
2023-04-04T09:02:29.295Z,9.70
2023-04-04T09:07:34.668Z,9.90
2023-04-04T09:12:40.060Z,9.90
2023-04-04T09:17:42.551Z,9.90
2023-04-04T09:22:45.313Z,10.00
2023-04-04T09:27:49.429Z,10.10
2023-04-04T09:37:53.957Z,10.40
2023-04-04T09:43:00.190Z,10.50
2023-04-04T09:48:02.675Z,10.60
2023-04-04T09:53:04.946Z,10.70
2023-04-04T09:58:17.118Z,11.00
2023-04-04T10:03:22.231Z,10.90
2023-04-04T10:08:24.368Z,10.80
2023-04-04T10:13:30.846Z,10.90
2023-04-04T10:18:34.660Z,10.80
2023-04-04T10:23:38.417Z,10.80
2023-04-04T10:28:42.313Z,11.00
2023-04-04T10:33:59.755Z,11.10
2023-04-04T10:39:11.475Z,11.20
2023-04-04T10:44:22.697Z,11.30
2023-04-04T10:49:24.932Z,11.40
2023-04-04T10:54:27.799Z,11.40
2023-04-04T10:59:30.022Z,11.40
2023-04-04T11:04:38.198Z,11.60
2023-04-04T11:09:47.636Z,11.70
2023-04-04T11:15:07.673Z,12.00
2023-04-04T11:25:24.844Z,12.50
2023-04-04T11:30:28.405Z,12.70
2023-04-04T11:35:30.452Z,12.90
2023-04-04T11:40:36.479Z,13.30
2023-04-04T11:45:43.771Z,13.40
2023-04-04T11:50:49.872Z,13.70
2023-04-04T11:55:53.189Z,13.90
2023-04-04T12:00:55.297Z,14.20
2023-04-04T12:05:57.610Z,14.40
2023-04-04T12:11:04.298Z,14.60
2023-04-04T12:16:08.080Z,14.70
2023-04-04T12:21:10.512Z,14.80
2023-04-04T12:26:13.081Z,15.00
2023-04-04T12:31:16.040Z,15.40
2023-04-04T12:36:18.327Z,15.70
2023-04-04T12:41:20.470Z,16.00
2023-04-04T12:46:26.080Z,16.10
2023-04-04T12:51:32.938Z,16.10
2023-04-04T12:56:36.288Z,16.20
2023-04-04T13:01:38.430Z,16.10
2023-04-04T13:06:40.622Z,16.20
2023-04-04T13:12:04.876Z,16.40
2023-04-04T13:17:08.297Z,16.40
2023-04-04T13:22:10.634Z,16.70
2023-04-04T13:27:12.624Z,16.70
2023-04-04T13:32:14.727Z,17.30
2023-04-04T13:37:17.026Z,17.80
2023-04-04T13:42:19.123Z,18.60
2023-04-04T13:47:22.595Z,18.70
2023-04-04T13:52:24.648Z,19.00
2023-04-04T13:57:28.657Z,19.40
2023-04-04T14:02:30.778Z,20.40
2023-04-04T14:07:33.186Z,21.10
2023-04-04T14:12:35.403Z,21.70
2023-04-04T14:17:37.862Z,22.40
2023-04-04T14:22:39.847Z,23.50
2023-04-04T14:27:41.926Z,24.20
2023-04-04T14:32:43.986Z,24.30
2023-04-04T14:37:46.468Z,25.10
2023-04-04T14:42:48.941Z,25.20
2023-04-04T14:47:51.782Z,25.50
2023-04-04T14:52:56.235Z,26.10
2023-04-04T14:58:02.419Z,27.00
2023-04-04T15:03:07.322Z,27.70
2023-04-04T15:08:09.504Z,28.10
2023-04-04T15:13:11.540Z,28.20
2023-04-04T15:18:13.546Z,28.20
2023-04-04T15:23:15.756Z,28.40
2023-04-04T15:28:17.992Z,28.50
2023-04-04T15:33:20.151Z,28.70
2023-04-04T15:38:22.637Z,28.70
2023-04-04T15:43:24.770Z,28.70
2023-04-04T15:48:26.807Z,28.40
2023-04-04T15:53:29.859Z,28.20
2023-04-04T16:03:34.661Z,28.40
2023-04-04T16:08:36.847Z,27.90
2023-04-04T16:13:38.946Z,26.20
2023-04-04T16:18:41.919Z,24.90
2023-04-04T16:23:44.197Z,24.30
2023-04-04T16:28:47.141Z,21.60
2023-04-04T16:33:49.606Z,20.50
2023-04-04T16:38:51.636Z,19.50
2023-04-04T16:43:54.632Z,18.20
2023-04-04T16:48:56.723Z,17.60
2023-04-04T16:53:58.781Z,17.10
2023-04-04T16:59:01.342Z,16.60
2023-04-04T17:04:03.833Z,16.20
2023-04-04T17:09:05.962Z,16.00
2023-04-04T17:14:08.173Z,15.30
2023-04-04T17:19:10.201Z,15.10
2023-04-04T17:24:12.390Z,15.10
2023-04-04T17:29:14.383Z,14.50
2023-04-04T17:34:16.670Z,14.40
2023-04-04T17:39:21.557Z,14.20
2023-04-04T17:44:23.966Z,14.00
2023-04-04T17:49:27.110Z,13.80
2023-04-04T17:54:30.596Z,13.80
2023-04-04T17:59:32.943Z,13.50
2023-04-04T18:04:35.108Z,13.30
2023-04-04T18:09:37.213Z,13.10
2023-04-04T18:14:39.269Z,12.80
2023-04-04T18:19:42.591Z,12.50
2023-04-04T18:24:45.440Z,12.30
2023-04-04T18:29:49.441Z,12.20
2023-04-04T18:34:51.533Z,11.80
2023-04-04T18:39:53.525Z,11.80
2023-04-04T18:44:55.670Z,11.50
2023-04-04T18:49:57.712Z,11.40
2023-04-04T18:54:59.829Z,10.70
2023-04-04T19:00:02.308Z,11.10
2023-04-04T19:05:05.053Z,10.90
2023-04-04T19:10:07.687Z,10.80
2023-04-04T19:15:09.923Z,10.70
2023-04-04T19:20:12.422Z,10.60
2023-04-04T19:25:14.521Z,10.50
2023-04-04T19:30:39.835Z,10.50
2023-04-04T19:35:55.886Z,10.50
2023-04-04T19:41:03.446Z,10.40
2023-04-04T19:46:09.904Z,9.80
2023-04-04T19:51:15.153Z,9.60
2023-04-04T19:56:18.039Z,9.30
2023-04-04T20:01:44.650Z,9.20
2023-04-04T20:06:49.838Z,9.10
2023-04-04T20:11:52.046Z,9.00
2023-04-04T20:16:54.160Z,8.90
2023-04-04T20:21:56.295Z,8.60
2023-04-04T20:26:59.511Z,8.40
2023-04-04T20:32:03.425Z,8.40
2023-04-04T20:37:07.554Z,8.20
2023-04-04T20:42:31.022Z,8.10
2023-04-04T20:47:50.029Z,7.90
2023-04-04T20:52:59.626Z,7.80
2023-04-04T20:58:07.773Z,7.60
2023-04-04T21:03:11.104Z,7.50
2023-04-04T21:08:33.274Z,7.30
2023-04-04T21:18:41.721Z,7.00
2023-04-04T21:23:44.217Z,6.90
2023-04-04T21:28:46.340Z,6.80
2023-04-04T21:33:49.652Z,6.60
2023-04-04T21:38:52.120Z,6.50
2023-04-04T21:43:55.055Z,6.40
2023-04-04T21:48:57.347Z,6.30
2023-04-04T21:53:59.863Z,6.20
2023-04-04T21:59:03.267Z,6.10
2023-04-04T22:09:07.774Z,6.00
2023-04-04T22:14:09.786Z,6.00
2023-04-04T22:19:18.749Z,5.90
2023-04-04T22:24:21.232Z,5.90
2023-04-04T22:29:23.287Z,5.80
2023-04-04T22:34:25.807Z,5.80
2023-04-04T22:39:30.693Z,5.70
2023-04-04T22:44:34.127Z,8.00
2023-04-04T22:49:37.900Z,5.70
2023-04-04T22:54:40.102Z,5.70
2023-04-04T22:59:42.166Z,5.60
2023-04-04T23:04:44.592Z,5.60
2023-04-04T23:09:46.868Z,5.60
2023-04-04T23:14:49.493Z,5.50
2023-04-04T23:19:51.617Z,5.50
2023-04-04T23:24:53.731Z,5.40
2023-04-04T23:29:57.079Z,5.40
2023-04-04T23:34:59.215Z,5.30
2023-04-04T23:40:01.373Z,5.20
2023-04-04T23:45:04.705Z,5.10
2023-04-04T23:50:07.361Z,5.10
2023-04-04T23:55:09.635Z,5.00
